Lavela — 2BPL5 — position and weather

sailwx.info

Track history (hours):
 
Tides and Currents Weather Stations Pressure Air Temp Water Temp Dewpoint Dewpoint Depression Visibility Wind Speed Wind Dir Waves Ship Positions

Lavela

Last reported at 2017-Dec-16 16:14 UTC. Time now 2017-Dec-17 14:02 UTC.
Position N 44°20' E 013°09'.

Length 175 m; draft 7.2 m.

Type: Tanker. MMSI: 235068202.

Date/timePositionNaut miles runAvg speedWind from/ knotsBaromVisibWave heightAir tempDewpointWater temp
2017-Dec-16 16:14N 44°20' E 013°09'312.5
2017-Dec-16 16:00N 44°23' E 013°08'612.5
2017-Dec-16 15:31N 44°28' E 013°05'612.5
2017-Dec-16 14:59N 44°35' E 013°02'612.6
2017-Dec-16 14:30N 44°40' E 012°60'612.7
2017-Dec-16 14:01N 44°46' E 012°56'612.5
2017-Dec-16 13:30N 44°51' E 012°50'612.3
2017-Dec-16 13:00N 44°57' E 012°49'713.0
2017-Dec-16 12:30N 45°03' E 012°45'612.4
2017-Dec-16 12:01N 45°08' E 012°39'612.5
2017-Dec-16 11:30N 45°11' E 012°32'611.9
2017-Dec-16 11:01N 45°16' E 012°28'613.0
2017-Dec-16 10:31N 45°20' E 012°20'4 8.1
2017-Dec-16 10:00N 45°22' E 012°15'4 7.3
2017-Dec-16 09:31N 45°26' E 012°16'1 1.7
2017-Dec-16 09:00N 45°26' E 012°14'0 0.0
2017-Dec-15 19:34N 45°26' E 012°14'0 0.0
2017-Dec-15 19:28N 45°26' E 012°14'0 0.0
2017-Dec-15 18:16N 45°26' E 012°14'0 0.0
2017-Dec-15 17:55N 45°26' E 012°14'0 0.0
2017-Dec-15 17:29N 45°26' E 012°14'0 0.0
2017-Dec-15 15:53N 45°26' E 012°14'0 0.0
2017-Dec-15 15:22N 45°26' E 012°14'0 0.0
2017-Dec-15 13:40N 45°26' E 012°14'0 0.0
2017-Dec-15 13:28N 45°26' E 012°14'0 0.0
2017-Dec-15 12:52N 45°26' E 012°14'0 0.0
2017-Dec-15 12:25N 45°26' E 012°14'0 0.0
2017-Dec-15 10:59N 45°26' E 012°14'0 0.0
2017-Dec-15 08:37N 45°26' E 012°14'0 0.0
2017-Dec-15 08:07N 45°26' E 012°14'0 0.0
2017-Dec-15 07:58N 45°26' E 012°14'1 2.0
2017-Dec-15 07:30N 45°26' E 012°16'3 6.4
2017-Dec-15 07:00N 45°23' E 012°15'4 8.2
2017-Dec-15 06:30N 45°20' E 012°20'510.2
2017-Dec-15 06:00N 45°19' E 012°27'2 3.3
2017-Dec-15 05:30N 45°20' E 012°28'0 0.2
2017-Dec-15 04:58N 45°20' E 012°28'0 0.0
2017-Dec-15 04:28N 45°20' E 012°28'0 0.0
2017-Dec-15 03:58N 45°20' E 012°28'0 0.0
2017-Dec-15 02:28N 45°20' E 012°28'0 0.0
2017-Dec-15 00:58N 45°20' E 012°28'0 0.0
2017-Dec-15 00:28N 45°20' E 012°28'0 0.0
2017-Dec-14 18:28N 45°20' E 012°29'0 0.1
2017-Dec-14 17:58N 45°20' E 012°28'0 0.2
2017-Dec-14 17:28N 45°20' E 012°28'0 0.1
2017-Dec-14 16:58N 45°20' E 012°28'0 0.0
2017-Dec-14 16:28N 45°20' E 012°28'0 0.0
2017-Dec-14 15:46N 45°20' E 012°28'0 0.0
2017-Dec-14 14:58N 45°20' E 012°28'0 0.1
2017-Dec-14 14:28N 45°20' E 012°28'0 0.0
2017-Dec-14 13:58N 45°20' E 012°28'0 0.0
2017-Dec-14 13:28N 45°20' E 012°28'0 0.1
2017-Dec-14 12:58N 45°20' E 012°28'0 0.0
2017-Dec-14 12:28N 45°20' E 012°28'0 0.0
2017-Dec-14 11:58N 45°20' E 012°28'0 0.0
2017-Dec-14 11:28N 45°20' E 012°28'0 0.0
2017-Dec-14 10:58N 45°20' E 012°28'0 0.1
2017-Dec-14 10:28N 45°20' E 012°28'0 0.1
2017-Dec-14 09:58N 45°20' E 012°28'0 0.0
2017-Dec-14 09:28N 45°20' E 012°28'0 0.0
2017-Dec-14 08:58N 45°20' E 012°28'0 0.0
2017-Dec-14 08:28N 45°20' E 012°28'0 0.0
2017-Dec-14 07:58N 45°20' E 012°28'0 0.0
2017-Dec-14 07:28N 45°20' E 012°28'0 0.0
2017-Dec-14 06:58N 45°20' E 012°28'0 0.0
2017-Dec-14 06:28N 45°20' E 012°28'0 0.0
2017-Dec-14 05:58N 45°20' E 012°28'0 0.0
2017-Dec-14 05:28N 45°20' E 012°28'0 0.0
2017-Dec-14 04:58N 45°20' E 012°28'0 0.0
2017-Dec-14 04:25N 45°20' E 012°28'0 0.0
2017-Dec-14 03:58N 45°20' E 012°28'0 0.1
2017-Dec-14 03:28N 45°20' E 012°28'0 0.0
2017-Dec-14 02:58N 45°20' E 012°28'0 0.0
2017-Dec-14 02:28N 45°20' E 012°28'0 0.0
2017-Dec-14 01:58N 45°20' E 012°28'0 0.0
2017-Dec-14 01:28N 45°20' E 012°28'0 0.0
2017-Dec-14 00:58N 45°20' E 012°28'0 0.1
2017-Dec-14 00:28N 45°20' E 012°28'0 0.0
2017-Dec-13 23:58N 45°20' E 012°28'0 0.1
2017-Dec-13 23:28N 45°20' E 012°29'0 0.1
2017-Dec-13 22:58N 45°20' E 012°28'0 0.1
2017-Dec-13 22:28N 45°20' E 012°28'0 0.0
2017-Dec-13 21:58N 45°20' E 012°28'0 0.0
2017-Dec-13 21:28N 45°20' E 012°28'0 0.0
2017-Dec-13 20:58N 45°20' E 012°28'0 0.0
2017-Dec-13 20:28N 45°20' E 012°28'0 0.0
2017-Dec-13 19:58N 45°20' E 012°28'0 0.0
2017-Dec-13 19:28N 45°20' E 012°28'0 0.0
2017-Dec-13 18:58N 45°20' E 012°28'0 0.0
2017-Dec-13 18:28N 45°20' E 012°28'0 0.0
2017-Dec-13 17:58N 45°20' E 012°28'0 0.0
2017-Dec-13 17:28N 45°20' E 012°28'0 0.0
2017-Dec-13 16:58N 45°20' E 012°28'0 0.0
2017-Dec-13 16:28N 45°20' E 012°28'0 0.0
2017-Dec-13 15:58N 45°20' E 012°28'1 1.5
2017-Dec-13 15:31N 45°19' E 012°29'3 5.3
2017-Dec-13 15:01N 45°17' E 012°32'3 5.3
2017-Dec-13 14:30N 45°15' E 012°30'612.7
2017-Dec-13 14:00N 45°19' E 012°23'5 9.9
2017-Dec-13 13:30N 45°21' E 012°16'4 7.4
2017-Dec-13 13:00N 45°24' E 012°16'2 3.3
2017-Dec-13 12:31N 45°26' E 012°15'1 0.2
2017-Dec-13 09:08N 45°26' E 012°14'0 0.9
2017-Dec-13 09:00N 45°26' E 012°15'1 2.6
2017-Dec-13 08:30N 45°25' E 012°16'3 5.8
2017-Dec-13 08:00N 45°22' E 012°15'3 6.3
2017-Dec-13 07:30N 45°20' E 012°19'4 7.1
2017-Dec-13 07:00N 45°19' E 012°24'0 0.3
2017-Dec-13 06:30N 45°19' E 012°23'2 3.4
2017-Dec-13 06:00N 45°19' E 012°26'2 4.3
2017-Dec-13 05:30N 45°20' E 012°29'0 0.3
2017-Dec-13 05:00N 45°20' E 012°29'0 0.1
2017-Dec-13 04:28N 45°20' E 012°29'0 0.2
2017-Dec-13 03:58N 45°20' E 012°29'0 0.1
2017-Dec-13 03:30N 45°20' E 012°29'0 0.1
2017-Dec-13 02:57N 45°20' E 012°29'0 0.1
2017-Dec-13 02:25N 45°20' E 012°29'0 0.0
2017-Dec-13 02:00N 45°20' E 012°29'0 0.0
2017-Dec-13 01:27N 45°20' E 012°29'0 0.1
2017-Dec-13 01:00N 45°20' E 012°29'0 0.0
2017-Dec-13 00:30N 45°20' E 012°29'0 0.1
2017-Dec-13 00:00N 45°20' E 012°29'0 0.0
2017-Dec-12 23:30N 45°20' E 012°29'0 0.0
2017-Dec-12 22:57N 45°20' E 012°29'0 0.1
2017-Dec-12 22:26N 45°20' E 012°29'1 3.2
2017-Dec-12 22:00N 45°19' E 012°30'510.6
2017-Dec-12 21:30N 45°15' E 012°35'612.6
2017-Dec-12 21:00N 45°11' E 012°42'612.4
2017-Dec-12 20:30N 45°07' E 012°48'612.8
2017-Dec-12 20:00N 45°01' E 012°53'612.8
2017-Dec-12 19:30N 44°55' E 012°56'613.0
2017-Dec-12 19:00N 44°49' E 012°59'613.0
2017-Dec-12 18:30N 44°43' E 013°02'612.9
2017-Dec-12 18:00N 44°37' E 013°05'612.9
2017-Dec-12 17:30N 44°31' E 013°08'612.4
2017-Dec-12 17:00N 44°25' E 013°11'612.6
2017-Dec-12 16:30N 44°19' E 013°14'1812.5
2017-Dec-12 15:04N 44°07' E 013°33'112.6
2017-Dec-12 15:00N 44°07' E 013°34'1312.5
2017-Dec-12 14:00N 43°59' E 013°48'612.0
2017-Dec-12 13:29N 43°55' E 013°55'381 9.7
2017-Dec-10 22:04N 37°47' E 016°02'213.1
2017-Dec-10 21:56N 37°46' E 016°00'613.2
2017-Dec-10 21:30N 37°42' E 015°55'913.2
2017-Dec-10 20:51N 37°36' E 015°47'513.4
2017-Dec-10 20:27N 37°32' E 015°42'81 2.2
2017-Dec-09 07:35N 36°28' E 014°40'113.1
2017-Dec-09 07:30N 36°27' E 014°39'1313.3
2017-Dec-09 06:33N 36°31' E 014°24'113.4
2017-Dec-09 06:30N 36°31' E 014°23'713.3
2017-Dec-09 06:00N 36°33' E 014°15'713.3
2017-Dec-09 05:30N 36°35' E 014°07'1013.1
2017-Dec-09 04:45N 36°38' E 013°55'313.1
2017-Dec-09 04:30N 36°39' E 013°51'  
Track history (hours):
 
Tides and Currents Weather Stations Pressure Air Temp Water Temp Dewpoint Dewpoint Depression Visibility Wind Speed Wind Dir Waves Ship Positions

Lavela

Last reported at 2017-Dec-16 16:14 UTC. Time now 2017-Dec-17 14:02 UTC.
Position N 44°20' E 013°09'.

Length 175 m; draft 7.2 m.

Type: Tanker. MMSI: 235068202.

Date/timePositionNaut miles runAvg speedWind from/ knotsBaromVisibWave heightAir tempDewpointWater temp
2017-Dec-16 16:14N 44°20' E 013°09'312.5
2017-Dec-16 16:00N 44°23' E 013°08'612.5
2017-Dec-16 15:31N 44°28' E 013°05'612.5
2017-Dec-16 14:59N 44°35' E 013°02'612.6
2017-Dec-16 14:30N 44°40' E 012°60'612.7
2017-Dec-16 14:01N 44°46' E 012°56'612.5
2017-Dec-16 13:30N 44°51' E 012°50'612.3
2017-Dec-16 13:00N 44°57' E 012°49'713.0
2017-Dec-16 12:30N 45°03' E 012°45'612.4
2017-Dec-16 12:01N 45°08' E 012°39'612.5
2017-Dec-16 11:30N 45°11' E 012°32'611.9
2017-Dec-16 11:01N 45°16' E 012°28'613.0
2017-Dec-16 10:31N 45°20' E 012°20'4 8.1
2017-Dec-16 10:00N 45°22' E 012°15'4 7.3
2017-Dec-16 09:31N 45°26' E 012°16'1 1.7
2017-Dec-16 09:00N 45°26' E 012°14'0 0.0
2017-Dec-15 19:34N 45°26' E 012°14'0 0.0
2017-Dec-15 19:28N 45°26' E 012°14'0 0.0
2017-Dec-15 18:16N 45°26' E 012°14'0 0.0
2017-Dec-15 17:55N 45°26' E 012°14'0 0.0
2017-Dec-15 17:29N 45°26' E 012°14'0 0.0
2017-Dec-15 15:53N 45°26' E 012°14'0 0.0
2017-Dec-15 15:22N 45°26' E 012°14'0 0.0
2017-Dec-15 13:40N 45°26' E 012°14'0 0.0
2017-Dec-15 13:28N 45°26' E 012°14'0 0.0
2017-Dec-15 12:52N 45°26' E 012°14'0 0.0
2017-Dec-15 12:25N 45°26' E 012°14'0 0.0
2017-Dec-15 10:59N 45°26' E 012°14'0 0.0
2017-Dec-15 08:37N 45°26' E 012°14'0 0.0
2017-Dec-15 08:07N 45°26' E 012°14'0 0.0
2017-Dec-15 07:58N 45°26' E 012°14'1 2.0
2017-Dec-15 07:30N 45°26' E 012°16'3 6.4
2017-Dec-15 07:00N 45°23' E 012°15'4 8.2
2017-Dec-15 06:30N 45°20' E 012°20'510.2
2017-Dec-15 06:00N 45°19' E 012°27'2 3.3
2017-Dec-15 05:30N 45°20' E 012°28'0 0.2
2017-Dec-15 04:58N 45°20' E 012°28'0 0.0
2017-Dec-15 04:28N 45°20' E 012°28'0 0.0
2017-Dec-15 03:58N 45°20' E 012°28'0 0.0
2017-Dec-15 02:28N 45°20' E 012°28'0 0.0
2017-Dec-15 00:58N 45°20' E 012°28'0 0.0
2017-Dec-15 00:28N 45°20' E 012°28'0 0.0
2017-Dec-14 18:28N 45°20' E 012°29'0 0.1
2017-Dec-14 17:58N 45°20' E 012°28'0 0.2
2017-Dec-14 17:28N 45°20' E 012°28'0 0.1
2017-Dec-14 16:58N 45°20' E 012°28'0 0.0
2017-Dec-14 16:28N 45°20' E 012°28'0 0.0
2017-Dec-14 15:46N 45°20' E 012°28'0 0.0
2017-Dec-14 14:58N 45°20' E 012°28'0 0.1
2017-Dec-14 14:28N 45°20' E 012°28'0 0.0
2017-Dec-14 13:58N 45°20' E 012°28'0 0.0
2017-Dec-14 13:28N 45°20' E 012°28'0 0.1
2017-Dec-14 12:58N 45°20' E 012°28'0 0.0
2017-Dec-14 12:28N 45°20' E 012°28'0 0.0
2017-Dec-14 11:58N 45°20' E 012°28'0 0.0
2017-Dec-14 11:28N 45°20' E 012°28'0 0.0
2017-Dec-14 10:58N 45°20' E 012°28'0 0.1
2017-Dec-14 10:28N 45°20' E 012°28'0 0.1
2017-Dec-14 09:58N 45°20' E 012°28'0 0.0
2017-Dec-14 09:28N 45°20' E 012°28'0 0.0
2017-Dec-14 08:58N 45°20' E 012°28'0 0.0
2017-Dec-14 08:28N 45°20' E 012°28'0 0.0
2017-Dec-14 07:58N 45°20' E 012°28'0 0.0
2017-Dec-14 07:28N 45°20' E 012°28'0 0.0
2017-Dec-14 06:58N 45°20' E 012°28'0 0.0
2017-Dec-14 06:28N 45°20' E 012°28'0 0.0
2017-Dec-14 05:58N 45°20' E 012°28'0 0.0
2017-Dec-14 05:28N 45°20' E 012°28'0 0.0
2017-Dec-14 04:58N 45°20' E 012°28'0 0.0
2017-Dec-14 04:25N 45°20' E 012°28'0 0.0
2017-Dec-14 03:58N 45°20' E 012°28'0 0.1
2017-Dec-14 03:28N 45°20' E 012°28'0 0.0
2017-Dec-14 02:58N 45°20' E 012°28'0 0.0
2017-Dec-14 02:28N 45°20' E 012°28'0 0.0
2017-Dec-14 01:58N 45°20' E 012°28'0 0.0
2017-Dec-14 01:28N 45°20' E 012°28'0 0.0
2017-Dec-14 00:58N 45°20' E 012°28'0 0.1
2017-Dec-14 00:28N 45°20' E 012°28'0 0.0
2017-Dec-13 23:58N 45°20' E 012°28'0 0.1
2017-Dec-13 23:28N 45°20' E 012°29'0 0.1
2017-Dec-13 22:58N 45°20' E 012°28'0 0.1
2017-Dec-13 22:28N 45°20' E 012°28'0 0.0
2017-Dec-13 21:58N 45°20' E 012°28'0 0.0
2017-Dec-13 21:28N 45°20' E 012°28'0 0.0
2017-Dec-13 20:58N 45°20' E 012°28'0 0.0
2017-Dec-13 20:28N 45°20' E 012°28'0 0.0
2017-Dec-13 19:58N 45°20' E 012°28'0 0.0
2017-Dec-13 19:28N 45°20' E 012°28'0 0.0
2017-Dec-13 18:58N 45°20' E 012°28'0 0.0
2017-Dec-13 18:28N 45°20' E 012°28'0 0.0
2017-Dec-13 17:58N 45°20' E 012°28'0 0.0
2017-Dec-13 17:28N 45°20' E 012°28'0 0.0
2017-Dec-13 16:58N 45°20' E 012°28'0 0.0
2017-Dec-13 16:28N 45°20' E 012°28'0 0.0
2017-Dec-13 15:58N 45°20' E 012°28'1 1.5
2017-Dec-13 15:31N 45°19' E 012°29'3 5.3
2017-Dec-13 15:01N 45°17' E 012°32'3 5.3
2017-Dec-13 14:30N 45°15' E 012°30'612.7
2017-Dec-13 14:00N 45°19' E 012°23'5 9.9
2017-Dec-13 13:30N 45°21' E 012°16'4 7.4
2017-Dec-13 13:00N 45°24' E 012°16'2 3.3
2017-Dec-13 12:31N 45°26' E 012°15'1 0.2
2017-Dec-13 09:08N 45°26' E 012°14'0 0.9
2017-Dec-13 09:00N 45°26' E 012°15'1 2.6
2017-Dec-13 08:30N 45°25' E 012°16'3 5.8
2017-Dec-13 08:00N 45°22' E 012°15'3 6.3
2017-Dec-13 07:30N 45°20' E 012°19'4 7.1
2017-Dec-13 07:00N 45°19' E 012°24'0 0.3
2017-Dec-13 06:30N 45°19' E 012°23'2 3.4
2017-Dec-13 06:00N 45°19' E 012°26'2 4.3
2017-Dec-13 05:30N 45°20' E 012°29'0 0.3
2017-Dec-13 05:00N 45°20' E 012°29'0 0.1
2017-Dec-13 04:28N 45°20' E 012°29'0 0.2
2017-Dec-13 03:58N 45°20' E 012°29'0 0.1
2017-Dec-13 03:30N 45°20' E 012°29'0 0.1
2017-Dec-13 02:57N 45°20' E 012°29'0 0.1
2017-Dec-13 02:25N 45°20' E 012°29'0 0.0
2017-Dec-13 02:00N 45°20' E 012°29'0 0.0
2017-Dec-13 01:27N 45°20' E 012°29'0 0.1
2017-Dec-13 01:00N 45°20' E 012°29'0 0.0
2017-Dec-13 00:30N 45°20' E 012°29'0 0.1
2017-Dec-13 00:00N 45°20' E 012°29'0 0.0
2017-Dec-12 23:30N 45°20' E 012°29'0 0.0
2017-Dec-12 22:57N 45°20' E 012°29'0 0.1
2017-Dec-12 22:26N 45°20' E 012°29'1 3.2
2017-Dec-12 22:00N 45°19' E 012°30'510.6
2017-Dec-12 21:30N 45°15' E 012°35'612.6
2017-Dec-12 21:00N 45°11' E 012°42'612.4
2017-Dec-12 20:30N 45°07' E 012°48'612.8
2017-Dec-12 20:00N 45°01' E 012°53'612.8
2017-Dec-12 19:30N 44°55' E 012°56'613.0
2017-Dec-12 19:00N 44°49' E 012°59'613.0
2017-Dec-12 18:30N 44°43' E 013°02'612.9
2017-Dec-12 18:00N 44°37' E 013°05'612.9
2017-Dec-12 17:30N 44°31' E 013°08'612.4
2017-Dec-12 17:00N 44°25' E 013°11'612.6
2017-Dec-12 16:30N 44°19' E 013°14'1812.5
2017-Dec-12 15:04N 44°07' E 013°33'112.6
2017-Dec-12 15:00N 44°07' E 013°34'1312.5
2017-Dec-12 14:00N 43°59' E 013°48'612.0
2017-Dec-12 13:29N 43°55' E 013°55'381 9.7
2017-Dec-10 22:04N 37°47' E 016°02'213.1
2017-Dec-10 21:56N 37°46' E 016°00'613.2
2017-Dec-10 21:30N 37°42' E 015°55'913.2
2017-Dec-10 20:51N 37°36' E 015°47'513.4
2017-Dec-10 20:27N 37°32' E 015°42'81 2.2
2017-Dec-09 07:35N 36°28' E 014°40'113.1
2017-Dec-09 07:30N 36°27' E 014°39'1313.3
2017-Dec-09 06:33N 36°31' E 014°24'113.4
2017-Dec-09 06:30N 36°31' E 014°23'713.3
2017-Dec-09 06:00N 36°33' E 014°15'713.3
2017-Dec-09 05:30N 36°35' E 014°07'1013.1
2017-Dec-09 04:45N 36°38' E 013°55'313.1
2017-Dec-09 04:30N 36°39' E 013°51'  

Dump ship's entire track history